Time;durP1;ratioP1;P1;durP2;ratioP2;P2;SDS_P1;SDS_P2;PMS_P1;PMS_P2;Temp;Humidity;BMP_temperature;BMP_pressure;BME280_temperature;BME280_humidity;BME280_pressure;Samples;Min_cycle;Max_cycle;Signal;HPM_P1;HPM_P2
2022/09/10 00:01:06;;;;;;;1.30;0.60;;;17.60;99.90;;;;;;5013913;28;20409;-75
2022/09/10 00:03:31;;;;;;;1.08;0.50;;;17.50;99.90;;;;;;5026868;28;20400;-73
2022/09/10 00:05:57;;;;;;;0.83;0.50;;;17.50;99.90;;;;;;5023592;28;20407;-74
2022/09/10 00:08:22;;;;;;;1.10;0.60;;;17.50;99.90;;;;;;5020423;28;20396;-74
2022/09/10 00:10:50;;;;;;;4.00;0.63;;;17.50;99.90;;;;;;5021899;28;20797;-74
2022/09/10 00:13:19;;;;;;;1.30;0.50;;;17.50;99.90;;;;;;5027111;28;20386;-73
2022/09/10 00:15:48;;;;;;;1.30;0.50;;;17.40;99.90;;;;;;5011305;28;20389;-74
2022/09/10 00:18:16;;;;;;;1.60;0.50;;;17.40;99.90;;;;;;4993298;28;20412;-74
2022/09/10 00:20:46;;;;;;;1.00;0.60;;;17.40;99.90;;;;;;4993381;28;20902;-74
2022/09/10 00:23:13;;;;;;;3.30;0.60;;;17.40;99.90;;;;;;5011074;28;20415;-73
2022/09/10 00:25:39;;;;;;;1.65;0.60;;;17.50;99.90;;;;;;5012139;28;20389;-74
2022/09/10 00:28:04;;;;;;;1.33;0.60;;;17.40;99.90;;;;;;5050582;28;20460;-74
2022/09/10 00:30:30;;;;;;;1.03;0.70;;;17.20;99.90;;;;;;5050560;28;20393;-77
2022/09/10 00:32:56;;;;;;;1.75;0.60;;;16.80;99.90;;;;;;5041849;28;20414;-76
2022/09/10 00:35:21;;;;;;;1.80;0.80;;;16.50;99.90;;;;;;5029309;28;20769;-75
2022/09/10 00:37:47;;;;;;;1.75;0.60;;;16.30;99.90;;;;;;5024631;28;20384;-75
2022/09/10 00:40:14;;;;;;;1.40;0.50;;;16.30;99.90;;;;;;5011422;28;20389;-75
2022/09/10 00:42:42;;;;;;;1.38;0.90;;;16.30;99.90;;;;;;5012876;28;20427;-74
2022/09/10 00:45:24;;;;;;;1.63;0.70;;;16.40;99.90;;;;;;5028697;28;20415;-74
2022/09/10 00:47:52;;;;;;;1.30;0.70;;;16.40;99.90;;;;;;5031623;28;20390;-73
2022/09/10 00:50:31;;;;;;;2.65;0.60;;;16.60;99.90;;;;;;5033702;28;20383;-74
2022/09/10 00:53:04;;;;;;;1.10;0.60;;;16.60;99.90;;;;;;5032172;28;20905;-74
2022/09/10 00:55:31;;;;;;;2.72;0.60;;;16.70;99.90;;;;;;5031979;28;20421;-74
2022/09/10 00:57:59;;;;;;;2.40;0.60;;;16.70;99.90;;;;;;5030834;28;20474;-74
2022/09/10 01:00:25;;;;;;;1.13;0.50;;;16.80;99.90;;;;;;4993488;28;20468;-74
2022/09/10 01:02:51;;;;;;;1.60;0.60;;;16.80;99.90;;;;;;5009918;28;20512;-74
2022/09/10 01:05:17;;;;;;;2.10;0.80;;;16.80;99.90;;;;;;5021804;28;20415;-74
2022/09/10 01:07:43;;;;;;;1.33;0.60;;;16.80;99.90;;;;;;5011900;28;20387;-74
2022/09/10 01:10:13;;;;;;;1.83;0.60;;;16.80;99.90;;;;;;5030174;28;20380;-74
2022/09/10 01:13:06;;;;;;;1.60;0.70;;;16.90;99.90;;;;;;5029648;28;21098;-73
2022/09/10 01:15:51;;;;;;;1.60;0.70;;;16.90;99.90;;;;;;5029291;28;20797;-75
2022/09/10 01:18:58;;;;;;;2.78;0.60;;;17.00;99.90;;;;;;5019605;28;20414;-74
2022/09/10 01:21:56;;;;;;;1.48;0.80;;;17.00;99.90;;;;;;4957520;28;20409;-73
2022/09/10 01:24:52;;;;;;;1.23;0.52;;;17.00;99.90;;;;;;4988518;28;20474;-74
2022/09/10 01:27:38;;;;;;;1.65;0.68;;;17.00;99.90;;;;;;5034760;28;20776;-74
2022/09/10 01:30:16;;;;;;;3.28;0.90;;;17.00;99.90;;;;;;5028539;28;20430;-75
2022/09/10 01:33:05;;;;;;;1.60;0.70;;;16.90;99.90;;;;;;5022774;28;20390;-74
2022/09/10 01:35:42;;;;;;;1.52;0.50;;;16.90;99.90;;;;;;5029899;28;20881;-75
2022/09/10 01:38:27;;;;;;;1.55;0.90;;;16.90;99.90;;;;;;5026210;28;20493;-75
2022/09/10 01:40:54;;;;;;;2.38;0.75;;;16.90;99.90;;;;;;5028543;28;20433;-74
2022/09/10 01:43:19;;;;;;;2.77;0.80;;;16.90;99.90;;;;;;5011077;28;20921;-74
2022/09/10 01:45:50;;;;;;;3.40;0.70;;;16.90;99.90;;;;;;5017436;28;20489;-73
2022/09/10 01:48:54;;;;;;;1.30;0.55;;;16.90;99.90;;;;;;5020010;28;20421;-75
2022/09/10 01:51:47;;;;;;;2.17;0.65;;;16.90;99.90;;;;;;5008244;28;20426;-75
2022/09/10 01:54:25;;;;;;;3.30;0.60;;;16.90;99.90;;;;;;5024347;28;20411;-75
2022/09/10 01:57:32;;;;;;;3.83;0.90;;;16.80;99.90;;;;;;5015105;28;20442;-73
2022/09/10 02:00:12;;;;;;;1.30;0.70;;;16.70;99.90;;;;;;5007261;28;20407;-74
2022/09/10 02:02:38;;;;;;;2.95;1.00;;;16.50;99.90;;;;;;5009449;28;20452;-76
2022/09/10 02:05:05;;;;;;;1.65;0.80;;;16.30;99.90;;;;;;4996458;28;20446;-75
2022/09/10 02:07:34;;;;;;;2.60;0.82;;;16.10;99.90;;;;;;5020525;28;20411;-75
2022/09/10 02:10:02;;;;;;;1.23;0.80;;;16.00;99.90;;;;;;5025563;28;20431;-75
2022/09/10 02:12:28;;;;;;;1.27;0.80;;;15.90;99.90;;;;;;5013077;28;20392;-75
2022/09/10 02:14:56;;;;;;;1.50;0.70;;;16.00;99.90;;;;;;5015480;28;20770;-75
2022/09/10 02:17:26;;;;;;;2.88;0.98;;;15.90;99.90;;;;;;5032274;28;20402;-75
2022/09/10 02:19:54;;;;;;;3.15;0.90;;;16.00;99.90;;;;;;5032965;28;20775;-75
2022/09/10 02:22:24;;;;;;;1.58;0.70;;;16.00;99.90;;;;;;5031867;28;20430;-75
2022/09/10 02:24:50;;;;;;;2.63;0.70;;;16.00;99.90;;;;;;5030149;28;20754;-75
2022/09/10 02:27:16;;;;;;;2.50;0.80;;;16.00;99.90;;;;;;5032471;28;20532;-75
2022/09/10 02:29:42;;;;;;;1.60;0.60;;;15.90;99.90;;;;;;5030419;28;20409;-75
2022/09/10 02:32:08;;;;;;;1.73;0.70;;;15.90;99.90;;;;;;5013899;28;20411;-75
2022/09/10 02:34:35;;;;;;;3.10;0.83;;;15.70;99.90;;;;;;5020425;28;20377;-74
2022/09/10 02:37:02;;;;;;;2.20;0.80;;;15.70;99.90;;;;;;5012874;28;20435;-75
2022/09/10 02:39:28;;;;;;;1.60;0.90;;;15.70;99.90;;;;;;5013727;28;20389;-74
2022/09/10 02:41:54;;;;;;;2.08;0.95;;;15.90;99.90;;;;;;5013640;28;20420;-75
2022/09/10 02:44:20;;;;;;;0.77;0.50;;;16.00;99.90;;;;;;5021854;28;20416;-75
2022/09/10 02:46:45;;;;;;;1.70;0.60;;;16.10;99.90;;;;;;4995131;28;20420;-75
2022/09/10 02:49:11;;;;;;;0.93;0.70;;;16.10;99.90;;;;;;5012688;28;20408;-75
2022/09/10 02:51:37;;;;;;;1.53;0.60;;;16.10;99.90;;;;;;5012874;28;20389;-75
2022/09/10 02:54:04;;;;;;;1.75;0.70;;;16.10;99.90;;;;;;5025422;28;21137;-75
2022/09/10 02:56:29;;;;;;;0.73;0.60;;;16.20;99.90;;;;;;5030983;28;20907;-73
2022/09/10 02:58:55;;;;;;;1.53;0.50;;;16.20;99.90;;;;;;5031501;28;20411;-75
2022/09/10 03:01:21;;;;;;;1.67;0.60;;;16.30;99.90;;;;;;5013877;28;20397;-75
2022/09/10 03:03:53;;;;;;;1.50;0.60;;;16.30;99.90;;;;;;5023625;28;20498;-74
2022/09/10 03:06:20;;;;;;;2.00;0.60;;;16.30;99.90;;;;;;5004630;28;20401;-74
2022/09/10 03:08:48;;;;;;;1.20;0.60;;;16.30;99.90;;;;;;5014260;28;20417;-74
2022/09/10 03:11:17;;;;;;;2.10;0.50;;;16.30;99.90;;;;;;5030569;28;20402;-74
2022/09/10 03:13:44;;;;;;;1.92;0.60;;;16.30;99.90;;;;;;5014217;28;20423;-74
2022/09/10 03:16:12;;;;;;;0.90;0.70;;;16.20;99.90;;;;;;5031011;28;20920;-74
2022/09/10 03:18:38;;;;;;;1.00;0.50;;;16.20;99.90;;;;;;5072663;22;20879;-70
2022/09/10 03:21:17;;;;;;;1.70;0.60;;;16.20;99.90;;;;;;5059811;28;20946;-70
2022/09/10 03:23:44;;;;;;;1.70;0.63;;;16.10;99.90;;;;;;5060630;28;20465;-70
2022/09/10 03:26:12;;;;;;;1.48;0.70;;;16.10;99.90;;;;;;5054408;28;20388;-69
2022/09/10 03:28:40;;;;;;;3.40;0.70;;;16.10;99.90;;;;;;5061766;28;20495;-70
2022/09/10 03:31:06;;;;;;;2.22;0.70;;;16.10;99.90;;;;;;5063734;28;20421;-72
2022/09/10 03:33:32;;;;;;;2.05;0.80;;;16.10;99.90;;;;;;5055222;28;20450;-71
2022/09/10 03:35:59;;;;;;;1.33;0.67;;;16.00;99.90;;;;;;5065414;28;20913;-71
2022/09/10 03:38:25;;;;;;;1.20;0.50;;;16.10;99.90;;;;;;5061056;28;20412;-70
2022/09/10 03:40:52;;;;;;;1.30;0.60;;;16.10;99.90;;;;;;5071304;28;21137;-70
2022/09/10 03:43:18;;;;;;;1.60;0.60;;;16.10;99.90;;;;;;5071294;28;20401;-71
2022/09/10 03:45:44;;;;;;;2.00;0.90;;;16.10;99.90;;;;;;5071657;28;20387;-71
2022/09/10 03:48:10;;;;;;;1.88;0.50;;;16.20;99.90;;;;;;5069365;28;20549;-71
2022/09/10 03:50:35;;;;;;;0.90;0.70;;;16.10;99.90;;;;;;5069534;28;20396;-71
2022/09/10 03:53:02;;;;;;;2.20;0.50;;;16.10;99.90;;;;;;5053191;28;20769;-71
2022/09/10 03:55:29;;;;;;;1.40;0.50;;;16.10;99.90;;;;;;5071453;28;20383;-71
2022/09/10 03:57:55;;;;;;;1.67;0.40;;;16.00;99.90;;;;;;5069502;28;20407;-71
2022/09/10 04:00:20;;;;;;;0.57;0.50;;;15.80;99.90;;;;;;5068392;28;20439;-70
2022/09/10 04:02:47;;;;;;;1.08;0.45;;;15.60;99.90;;;;;;5065264;28;20400;-72
2022/09/10 04:05:12;;;;;;;0.52;0.40;;;15.40;99.90;;;;;;5071166;28;20371;-72
2022/09/10 04:07:38;;;;;;;1.00;0.40;;;15.20;99.90;;;;;;5065098;28;20465;-71
2022/09/10 04:10:04;;;;;;;1.13;0.60;;;15.10;99.90;;;;;;5071043;28;20380;-70
2022/09/10 04:12:29;;;;;;;0.90;0.60;;;15.00;99.90;;;;;;5070982;28;20471;-70
2022/09/10 04:14:55;;;;;;;0.63;0.50;;;14.90;99.90;;;;;;5070881;28;20462;-71
2022/09/10 04:17:23;;;;;;;1.58;0.60;;;14.90;99.90;;;;;;5070871;28;20391;-70
2022/09/10 04:19:49;;;;;;;2.20;0.70;;;14.90;99.90;;;;;;5070935;28;20410;-71
2022/09/10 04:22:15;;;;;;;1.70;0.60;;;14.80;99.90;;;;;;5070949;28;20380;-70
2022/09/10 04:24:41;;;;;;;0.60;0.40;;;14.80;99.90;;;;;;5070635;28;20436;-70
2022/09/10 04:27:06;;;;;;;0.93;0.50;;;14.70;99.90;;;;;;5070682;28;20753;-70
2022/09/10 04:29:32;;;;;;;1.30;0.60;;;14.80;99.90;;;;;;5070808;28;20372;-71
2022/09/10 04:31:57;;;;;;;0.97;0.60;;;14.80;99.90;;;;;;5070623;28;20403;-70
2022/09/10 04:34:23;;;;;;;0.70;0.50;;;14.70;99.90;;;;;;5070454;28;20470;-70
2022/09/10 04:36:48;;;;;;;3.10;0.70;;;14.70;99.90;;;;;;5070732;28;20472;-70
2022/09/10 04:39:15;;;;;;;1.20;0.60;;;14.60;99.90;;;;;;5070849;28;20387;-70
2022/09/10 04:41:40;;;;;;;1.02;0.80;;;14.50;99.90;;;;;;5070473;28;20971;-70
2022/09/10 04:44:06;;;;;;;2.28;0.90;;;14.50;99.90;;;;;;5070070;28;20404;-71
2022/09/10 04:46:32;;;;;;;1.40;0.70;;;14.40;99.90;;;;;;5070708;28;20405;-71
2022/09/10 04:48:57;;;;;;;2.40;1.30;;;14.50;99.90;;;;;;5068041;28;20948;-70
2022/09/10 04:51:23;;;;;;;0.90;0.70;;;14.50;99.90;;;;;;5068525;28;20399;-71
2022/09/10 04:53:49;;;;;;;1.98;0.70;;;14.40;99.90;;;;;;5065674;28;20499;-70
2022/09/10 04:56:15;;;;;;;0.90;0.70;;;14.60;99.90;;;;;;5068555;28;20749;-71
2022/09/10 04:58:42;;;;;;;2.10;0.90;;;14.50;99.90;;;;;;5070528;28;20961;-70
2022/09/10 05:01:08;;;;;;;0.80;0.60;;;14.50;99.90;;;;;;5052387;28;20423;-71
2022/09/10 05:03:34;;;;;;;1.20;0.70;;;14.50;99.90;;;;;;5070267;28;20396;-70
2022/09/10 05:06:00;;;;;;;1.30;0.77;;;14.50;99.90;;;;;;5068604;28;20441;-71
2022/09/10 05:08:25;;;;;;;2.17;0.63;;;14.50;99.90;;;;;;5064497;28;20824;-70
2022/09/10 05:10:52;;;;;;;1.50;0.67;;;14.60;99.90;;;;;;5068848;28;20494;-71
2022/09/10 05:13:17;;;;;;;1.60;0.60;;;14.70;99.90;;;;;;5067019;28;20415;-70
2022/09/10 05:15:44;;;;;;;0.70;0.50;;;14.70;99.90;;;;;;5070376;28;20375;-70
2022/09/10 05:18:10;;;;;;;2.67;0.85;;;14.80;99.90;;;;;;5070062;28;20426;-71
2022/09/10 05:20:36;;;;;;;1.23;0.80;;;14.80;99.90;;;;;;5070190;28;20384;-70
2022/09/10 05:23:01;;;;;;;2.70;1.20;;;14.90;99.90;;;;;;5066837;28;20430;-70
2022/09/10 05:25:27;;;;;;;0.60;0.50;;;14.90;99.90;;;;;;5063609;28;20468;-69
2022/09/10 05:27:54;;;;;;;1.80;0.70;;;14.90;99.90;;;;;;5067512;28;20419;-69
2022/09/10 05:30:19;;;;;;;1.33;0.80;;;15.00;99.90;;;;;;5070138;28;20466;-69
2022/09/10 05:32:46;;;;;;;2.00;0.80;;;15.00;99.90;;;;;;5069850;28;20506;-70
2022/09/10 05:35:12;;;;;;;2.70;1.05;;;15.00;99.90;;;;;;5068418;28;20403;-70
2022/09/10 05:37:38;;;;;;;1.35;1.02;;;15.10;99.90;;;;;;5067468;28;20916;-70
2022/09/10 05:40:06;;;;;;;2.83;1.10;;;15.10;99.90;;;;;;5057838;28;20498;-69
2022/09/10 05:42:32;;;;;;;3.40;1.10;;;15.20;99.90;;;;;;5062065;28;20482;-69
2022/09/10 05:44:58;;;;;;;2.63;0.90;;;15.20;99.90;;;;;;5070594;28;20560;-70
2022/09/10 05:47:23;;;;;;;3.10;1.10;;;15.20;99.90;;;;;;5070188;28;20482;-70
2022/09/10 05:49:50;;;;;;;1.80;1.10;;;15.20;99.90;;;;;;5073390;28;20380;-70
2022/09/10 05:52:16;;;;;;;1.90;1.20;;;15.20;99.90;;;;;;5073924;28;20434;-70
2022/09/10 05:54:43;;;;;;;1.10;1.00;;;15.20;99.90;;;;;;5073561;28;20395;-70
2022/09/10 05:57:08;;;;;;;1.75;1.02;;;15.30;99.90;;;;;;5069848;28;20821;-70
2022/09/10 05:59:35;;;;;;;2.00;1.10;;;15.30;99.90;;;;;;5073260;28;20380;-70
2022/09/10 06:02:00;;;;;;;2.00;1.10;;;15.30;99.90;;;;;;5047212;28;20933;-70
2022/09/10 06:04:26;;;;;;;3.30;1.20;;;15.30;99.90;;;;;;5072463;28;20400;-70
2022/09/10 06:06:52;;;;;;;1.80;1.10;;;15.30;99.90;;;;;;5073396;28;20384;-70
2022/09/10 06:09:18;;;;;;;1.90;0.90;;;15.30;99.90;;;;;;5064588;28;20410;-70
2022/09/10 06:11:47;;;;;;;1.77;1.05;;;15.30;99.90;;;;;;5066922;28;20482;-70
2022/09/10 06:14:13;;;;;;;2.90;1.10;;;15.30;99.90;;;;;;5069229;28;20388;-72
2022/09/10 06:16:39;;;;;;;2.40;1.10;;;15.30;99.90;;;;;;5070790;28;20406;-71
2022/09/10 06:19:05;;;;;;;3.70;1.50;;;15.30;99.90;;;;;;5066002;28;20466;-71
2022/09/10 06:21:31;;;;;;;3.50;1.40;;;15.30;99.90;;;;;;5065115;28;20467;-71
2022/09/10 06:23:57;;;;;;;3.45;1.20;;;15.30;99.90;;;;;;5072949;28;20404;-71
2022/09/10 06:26:22;;;;;;;1.90;1.10;;;15.30;99.90;;;;;;5073077;28;20387;-71
2022/09/10 06:28:48;;;;;;;4.33;1.57;;;15.30;99.90;;;;;;5069727;28;20392;-71
2022/09/10 06:31:16;;;;;;;1.20;1.10;;;15.30;99.90;;;;;;5060538;28;20487;-70
2022/09/10 06:33:47;;;;;;;2.00;1.00;;;15.30;99.90;;;;;;5068830;28;20471;-70
2022/09/10 06:36:13;;;;;;;1.70;1.10;;;15.30;99.90;;;;;;5071327;28;20412;-70
2022/09/10 06:38:39;;;;;;;2.50;1.20;;;15.20;99.90;;;;;;5071463;28;20968;-71
2022/09/10 06:41:10;;;;;;;2.90;1.50;;;15.20;99.90;;;;;;5072914;28;20899;-71
2022/09/10 06:43:37;;;;;;;3.90;1.40;;;15.10;99.90;;;;;;5070631;28;20457;-70
2022/09/10 06:46:09;;;;;;;3.53;1.52;;;15.20;99.90;;;;;;5064732;28;20947;-71
2022/09/10 06:48:41;;;;;;;2.08;1.20;;;15.20;99.90;;;;;;5063723;28;20469;-72
2022/09/10 06:51:08;;;;;;;4.00;1.10;;;15.20;99.90;;;;;;5069375;28;20465;-70
2022/09/10 06:53:34;;;;;;;2.00;1.20;;;15.20;99.90;;;;;;5072270;28;20376;-70
2022/09/10 06:56:01;;;;;;;2.78;1.00;;;15.30;99.90;;;;;;5058928;28;20444;-71
2022/09/10 06:58:31;;;;;;;2.17;1.10;;;15.30;99.90;;;;;;5071838;28;20754;-71
2022/09/10 07:00:56;;;;;;;1.30;0.73;;;15.30;99.90;;;;;;5070508;28;20407;-70
2022/09/10 07:03:22;;;;;;;3.97;1.37;;;15.30;99.90;;;;;;5072106;28;20446;-70
2022/09/10 07:05:52;;;;;;;1.40;1.00;;;15.40;99.90;;;;;;5071014;28;20400;-70
2022/09/10 07:08:19;;;;;;;1.55;1.00;;;15.40;99.90;;;;;;5068487;28;20453;-70
2022/09/10 07:10:45;;;;;;;1.98;0.77;;;15.40;99.90;;;;;;5062475;28;20525;-70
2022/09/10 07:13:11;;;;;;;2.67;1.10;;;15.50;99.90;;;;;;5066300;28;20415;-70
2022/09/10 07:15:47;;;;;;;1.87;0.73;;;15.50;99.90;;;;;;5064194;28;20979;-70
2022/09/10 07:18:13;;;;;;;2.43;0.90;;;15.50;99.90;;;;;;5061870;28;20404;-70
2022/09/10 07:20:42;;;;;;;1.70;0.80;;;15.60;99.90;;;;;;5062824;28;20722;-70
2022/09/10 07:23:17;;;;;;;3.88;1.20;;;15.60;99.90;;;;;;5071390;28;20396;-71
2022/09/10 07:25:42;;;;;;;2.97;1.00;;;15.70;99.90;;;;;;5072809;28;20402;-71
2022/09/10 07:28:13;;;;;;;1.42;1.00;;;15.70;99.90;;;;;;5069939;28;20399;-70
2022/09/10 07:30:42;;;;;;;1.77;1.00;;;15.70;99.90;;;;;;5068199;28;20481;-71
2022/09/10 07:33:10;;;;;;;3.00;0.90;;;15.70;99.90;;;;;;5071482;28;20885;-71
2022/09/10 07:35:37;;;;;;;2.88;1.30;;;15.70;99.90;;;;;;5071754;28;20398;-71
2022/09/10 07:38:06;;;;;;;1.30;1.10;;;15.70;99.90;;;;;;5069870;28;20908;-71
2022/09/10 07:40:32;;;;;;;1.92;1.30;;;15.70;99.90;;;;;;5063683;28;20399;-72
2022/09/10 07:42:58;;;;;;;1.30;0.80;;;15.70;99.90;;;;;;5057922;28;20420;-71
2022/09/10 07:45:25;;;;;;;3.00;1.25;;;15.70;99.90;;;;;;5063832;28;20805;-70
2022/09/10 07:47:50;;;;;;;2.60;0.83;;;15.70;99.90;;;;;;5061907;28;20496;-72
2022/09/10 07:50:16;;;;;;;2.80;1.00;;;15.60;99.90;;;;;;5062874;28;20472;-71
2022/09/10 07:52:42;;;;;;;3.73;1.03;;;15.60;99.90;;;;;;5062142;28;20491;-71
2022/09/10 07:55:08;;;;;;;3.50;1.20;;;15.60;99.90;;;;;;5059289;28;20499;-71
2022/09/10 07:57:36;;;;;;;2.60;1.20;;;15.60;99.90;;;;;;5060374;28;20989;-71
2022/09/10 08:00:05;;;;;;;2.33;1.00;;;15.50;99.90;;;;;;5069082;28;20920;-70
2022/09/10 08:02:30;;;;;;;1.63;0.87;;;15.50;99.90;;;;;;5064198;28;20411;-71
2022/09/10 08:04:56;;;;;;;1.70;0.90;;;15.40;99.90;;;;;;5063298;28;20404;-70
2022/09/10 08:07:22;;;;;;;1.35;0.75;;;15.40;99.90;;;;;;5061307;28;20415;-70
2022/09/10 08:09:47;;;;;;;2.47;1.05;;;15.40;99.90;;;;;;5063052;28;20417;-70
2022/09/10 08:12:15;;;;;;;2.30;1.70;;;15.00;99.90;;;;;;5061055;28;20841;-70
2022/09/10 08:14:41;;;;;;;2.70;1.20;;;14.90;99.90;;;;;;5067925;28;20404;-70
2022/09/10 08:17:06;;;;;;;4.77;1.77;;;14.80;99.90;;;;;;5066050;28;20519;-70
2022/09/10 08:19:32;;;;;;;3.13;1.30;;;14.70;99.90;;;;;;5064160;28;20839;-70
2022/09/10 08:21:58;;;;;;;1.60;1.33;;;14.80;99.90;;;;;;5059037;28;20478;-70
2022/09/10 08:24:24;;;;;;;3.40;1.20;;;14.80;99.90;;;;;;5066550;28;20498;-69
2022/09/10 08:26:49;;;;;;;101.07;75.90;;;14.80;99.90;;;;;;5067082;28;20410;-70
2022/09/10 08:29:15;;;;;;;1.90;1.40;;;14.90;99.90;;;;;;5060350;28;20411;-70
2022/09/10 08:31:41;;;;;;;3.23;1.20;;;15.00;99.90;;;;;;5065527;28;20792;-70
2022/09/10 08:34:09;;;;;;;1.57;1.20;;;15.10;99.90;;;;;;5062556;28;20908;-70
2022/09/10 08:36:34;;;;;;;1.90;1.00;;;15.10;99.90;;;;;;5063209;28;20468;-69
2022/09/10 08:39:00;;;;;;;2.10;0.90;;;15.10;99.90;;;;;;5055120;28;20555;-70
2022/09/10 08:41:41;;;;;;;1.33;1.00;;;15.10;99.90;;;;;;5059734;28;20479;-69
2022/09/10 08:44:14;;;;;;;1.40;0.80;;;15.10;99.90;;;;;;5058563;28;20410;-69
2022/09/10 08:46:47;;;;;;;2.00;0.88;;;15.10;99.90;;;;;;5058869;28;22275;-71
2022/09/10 08:49:38;;;;;;;1.67;0.80;;;15.10;99.90;;;;;;5061836;28;20425;-70
2022/09/10 08:52:06;;;;;;;1.13;0.70;;;15.10;99.90;;;;;;5059670;28;20925;-71
2022/09/10 08:54:45;;;;;;;1.50;0.75;;;15.10;99.90;;;;;;5061048;28;20918;-70
2022/09/10 08:57:22;;;;;;;0.80;0.70;;;15.10;99.90;;;;;;5066067;28;20413;-71
2022/09/10 08:59:51;;;;;;;1.80;0.80;;;15.10;99.90;;;;;;5061313;28;20395;-72
2022/09/10 09:02:41;;;;;;;2.50;0.60;;;15.20;99.90;;;;;;5056984;28;20424;-72
2022/09/10 09:05:21;;;;;;;1.50;0.90;;;15.20;99.90;;;;;;5062608;28;20403;-73
2022/09/10 09:07:48;;;;;;;1.30;0.70;;;15.20;99.90;;;;;;5057220;28;20408;-71
2022/09/10 09:10:23;;;;;;;1.88;0.82;;;15.20;99.90;;;;;;5061696;28;20582;-71
2022/09/10 09:13:07;;;;;;;1.10;1.00;;;15.30;99.90;;;;;;5069347;28;20400;-72
2022/09/10 09:15:50;;;;;;;1.70;0.85;;;15.40;99.90;;;;;;5065822;28;20411;-70
2022/09/10 09:18:31;;;;;;;1.30;0.80;;;15.50;99.90;;;;;;5062575;28;20513;-71
2022/09/10 09:21:05;;;;;;;0.70;0.60;;;15.60;99.90;;;;;;5100117;22;20441;-76
2022/09/10 09:23:48;;;;;;;2.22;0.88;;;15.70;99.90;;;;;;5076027;28;20414;-74
2022/09/10 09:26:14;;;;;;;2.30;1.00;;;15.80;99.90;;;;;;5075413;28;20462;-75
2022/09/10 09:28:51;;;;;;;1.60;1.08;;;15.90;99.90;;;;;;5076166;28;20808;-76
2022/09/10 09:31:47;;;;;;;1.23;0.70;;;15.90;99.90;;;;;;5058667;28;20396;-76
2022/09/10 09:34:35;;;;;;;1.40;0.70;;;15.90;99.90;;;;;;5055777;28;20443;-76
2022/09/10 09:37:03;;;;;;;1.02;0.50;;;15.80;99.90;;;;;;5073197;28;20449;-75
2022/09/10 09:39:48;;;;;;;1.00;0.80;;;15.70;99.90;;;;;;5067627;28;20900;-77
2022/09/10 09:42:23;;;;;;;1.35;0.90;;;15.60;99.90;;;;;;5070121;28;20824;-77
2022/09/10 09:45:46;;;;;;;1.60;0.70;;;15.60;99.90;;;;;;5070845;28;20414;-76
2022/09/10 09:48:15;;;;;;;2.00;0.70;;;15.50;99.90;;;;;;5046950;28;20409;-75
2022/09/10 09:50:47;;;;;;;3.20;0.70;;;15.40;99.90;;;;;;5071807;28;20398;-74
2022/09/10 09:53:20;;;;;;;3.50;0.70;;;15.30;99.90;;;;;;5067178;28;20384;-76
2022/09/10 09:55:48;;;;;;;2.55;0.88;;;15.30;99.90;;;;;;5063412;28;20379;-75
2022/09/10 09:58:20;;;;;;;1.00;0.63;;;15.40;99.90;;;;;;5085317;28;20386;-76
2022/09/10 10:01:09;;;;;;;6.93;1.13;;;15.40;99.90;;;;;;5060989;28;20971;-77
2022/09/10 10:03:37;;;;;;;2.70;0.80;;;15.40;99.90;;;;;;5060299;28;20408;-75
2022/09/10 10:06:08;;;;;;;1.30;0.82;;;15.40;99.90;;;;;;5064662;28;20453;-76
2022/09/10 10:08:40;;;;;;;2.42;0.80;;;15.50;99.90;;;;;;5057942;28;20424;-75
2022/09/10 10:11:06;;;;;;;2.67;0.80;;;15.60;99.90;;;;;;5054775;28;20775;-76
2022/09/10 10:13:41;;;;;;;1.80;0.80;;;15.60;99.90;;;;;;5061553;28;20404;-78
2022/09/10 10:16:34;;;;;;;1.38;0.90;;;15.70;99.90;;;;;;5067709;28;20404;-76
2022/09/10 10:19:00;;;;;;;3.40;1.00;;;15.70;99.90;;;;;;5055525;28;20433;-76
2022/09/10 10:21:33;;;;;;;2.05;1.20;;;15.60;99.90;;;;;;5069144;28;20464;-72
2022/09/10 10:23:59;;;;;;;1.40;0.90;;;15.60;99.90;;;;;;5078365;28;20426;-73
2022/09/10 10:26:31;;;;;;;1.23;0.90;;;15.70;99.90;;;;;;5070101;28;20396;-72
2022/09/10 10:29:05;;;;;;;2.70;1.50;;;15.70;99.90;;;;;;5071277;28;20406;-74
2022/09/10 10:31:40;;;;;;;2.78;1.10;;;15.80;99.90;;;;;;5053393;28;20380;-76
2022/09/10 10:34:09;;;;;;;2.55;1.20;;;15.80;99.90;;;;;;5052709;28;20472;-76
2022/09/10 10:36:43;;;;;;;4.35;1.00;;;15.90;99.90;;;;;;5052534;28;20863;-74
2022/09/10 10:39:23;;;;;;;5.53;1.40;;;15.90;99.90;;;;;;5051868;28;20404;-76
2022/09/10 10:42:15;;;;;;;1.50;1.00;;;16.00;99.90;;;;;;5053130;28;20473;-75
2022/09/10 10:45:13;;;;;;;5.35;1.50;;;16.10;99.90;;;;;;5054038;28;20480;-76
2022/09/10 10:48:00;;;;;;;3.13;1.25;;;16.10;99.90;;;;;;5052482;28;20952;-75
2022/09/10 10:50:34;;;;;;;3.08;1.05;;;16.10;99.90;;;;;;5052760;28;20791;-75
2022/09/10 10:53:14;;;;;;;3.88;1.10;;;16.20;99.90;;;;;;5051068;28;20420;-75
2022/09/10 10:55:49;;;;;;;3.30;1.00;;;16.40;99.90;;;;;;5052236;28;20378;-76
2022/09/10 10:58:48;;;;;;;2.00;1.00;;;16.50;99.90;;;;;;5051251;28;20388;-76
2022/09/10 11:01:23;;;;;;;1.67;0.85;;;16.70;99.90;;;;;;5067757;28;20386;-76
2022/09/10 11:04:12;;;;;;;2.63;1.10;;;16.80;99.90;;;;;;5051410;28;20467;-76
2022/09/10 11:06:43;;;;;;;2.10;1.10;;;17.00;99.90;;;;;;5051302;28;20400;-76
2022/09/10 11:09:22;;;;;;;2.10;0.90;;;17.10;99.90;;;;;;5051112;28;20390;-75
2022/09/10 11:12:25;;;;;;;1.50;0.90;;;17.30;99.90;;;;;;5052375;28;20393;-76
2022/09/10 11:15:05;;;;;;;2.25;1.00;;;17.50;99.90;;;;;;5002155;28;20420;-76
2022/09/10 11:17:35;;;;;;;2.70;0.80;;;17.70;99.90;;;;;;5052347;28;20385;-76
2022/09/10 11:20:18;;;;;;;2.10;0.80;;;17.70;99.90;;;;;;5052047;28;20401;-76
2022/09/10 11:23:28;;;;;;;2.25;0.80;;;17.80;99.90;;;;;;5051925;28;20911;-76
2022/09/10 11:26:06;;;;;;;3.20;0.80;;;17.90;99.90;;;;;;5040885;28;20777;-76
2022/09/10 11:28:46;;;;;;;0.63;0.60;;;18.00;99.90;;;;;;5067338;28;20404;-76
2022/09/10 11:31:16;;;;;;;4.40;0.90;;;17.90;99.90;;;;;;5065277;28;20827;-77
2022/09/10 11:34:03;;;;;;;2.00;0.73;;;17.90;99.90;;;;;;5062000;28;20901;-76
2022/09/10 11:36:40;;;;;;;2.00;0.70;;;18.00;99.90;;;;;;5064365;28;20443;-76
2022/09/10 11:39:15;;;;;;;2.10;0.85;;;18.00;99.90;;;;;;5062519;28;20502;-76
2022/09/10 11:41:42;;;;;;;1.40;0.80;;;18.10;99.90;;;;;;5057999;28;20392;-76
2022/09/10 11:44:36;;;;;;;1.70;0.80;;;18.40;99.90;;;;;;5052084;28;20945;-76
2022/09/10 11:47:37;;;;;;;1.63;0.80;;;18.90;99.90;;;;;;5050950;28;20469;-75
2022/09/10 11:50:06;;;;;;;1.90;0.70;;;19.10;99.90;;;;;;5013237;28;20941;-76
2022/09/10 11:52:34;;;;;;;3.50;1.10;;;19.70;99.90;;;;;;5065261;28;20422;-75
2022/09/10 11:55:02;;;;;;;2.00;0.70;;;19.90;99.90;;;;;;5059670;28;20401;-76
2022/09/10 11:58:01;;;;;;;2.40;0.77;;;20.20;99.90;;;;;;5069596;28;20397;-76
2022/09/10 12:00:29;;;;;;;0.95;0.68;;;20.80;99.90;;;;;;5065203;28;20629;-77
2022/09/10 12:03:21;;;;;;;1.37;0.60;;;21.60;99.90;;;;;;5062157;28;20937;-76
2022/09/10 12:06:05;;;;;;;1.17;0.50;;;22.30;99.90;;;;;;5056953;28;20403;-76
2022/09/10 12:08:46;;;;;;;2.78;0.80;;;22.80;99.50;;;;;;5065144;28;20408;-74
2022/09/10 12:11:40;;;;;;;0.68;0.50;;;23.10;98.50;;;;;;5061300;28;20446;-74
2022/09/10 12:14:12;;;;;;;1.30;0.60;;;22.60;96.50;;;;;;5052156;28;20401;-74
2022/09/10 12:16:43;;;;;;;1.73;0.70;;;22.00;98.80;;;;;;5051387;28;20468;-74
2022/09/10 12:19:23;;;;;;;0.80;0.50;;;21.80;99.90;;;;;;5057827;28;20387;-77
2022/09/10 12:21:53;;;;;;;1.80;0.83;;;21.50;99.90;;;;;;5056837;28;20913;-77
2022/09/10 12:24:26;;;;;;;1.52;0.90;;;21.00;99.90;;;;;;5058445;28;20486;-77
2022/09/10 12:26:53;;;;;;;0.82;0.60;;;21.50;99.90;;;;;;5060467;28;20400;-77
2022/09/10 12:29:39;;;;;;;1.40;0.65;;;21.60;99.90;;;;;;5061231;28;20389;-75
2022/09/10 12:32:11;;;;;;;1.30;0.70;;;21.20;99.90;;;;;;5062165;28;20529;-76
2022/09/10 12:34:37;;;;;;;1.30;0.70;;;21.60;99.90;;;;;;5059294;28;20422;-76
2022/09/10 12:37:03;;;;;;;1.40;0.70;;;20.90;99.90;;;;;;5058541;28;20471;-76
2022/09/10 12:39:31;;;;;;;0.73;0.60;;;20.90;99.90;;;;;;5060303;28;20773;-76
2022/09/10 12:41:59;;;;;;;1.20;0.73;;;20.90;99.90;;;;;;5059813;28;20412;-76
2022/09/10 12:44:44;;;;;;;1.13;0.73;;;20.60;99.90;;;;;;5057978;28;20939;-76
2022/09/10 12:47:15;;;;;;;1.70;0.70;;;20.80;99.90;;;;;;5058472;28;20398;-75
2022/09/10 12:49:58;;;;;;;1.20;0.80;;;21.20;99.90;;;;;;5058270;28;20449;-77
2022/09/10 12:52:30;;;;;;;2.20;0.80;;;21.30;99.90;;;;;;5075439;28;20395;-77
2022/09/10 12:55:18;;;;;;;3.05;1.20;;;21.10;99.90;;;;;;5059299;28;20427;-76
2022/09/10 12:57:54;;;;;;;2.85;0.85;;;21.20;99.90;;;;;;5060357;28;20379;-76
2022/09/10 13:00:27;;;;;;;1.70;0.75;;;21.20;99.90;;;;;;5057188;28;20488;-76
2022/09/10 13:03:10;;;;;;;2.35;0.75;;;21.60;99.90;;;;;;5059787;28;20778;-76
2022/09/10 13:05:47;;;;;;;1.00;0.80;;;21.70;99.90;;;;;;5055526;28;20410;-77
2022/09/10 13:08:32;;;;;;;2.70;0.80;;;21.10;99.90;;;;;;5057228;28;20398;-78